Seabourn Pride — C6FR5 — position and weather

sailwx.info

Track history (hours):
 
Tides and Currents Weather Stations Pressure Air Temp Water Temp Dewpoint Dewpoint Depression Visibility Wind Speed Wind Dir Waves Ship Positions

Seabourn Pride

Operator: Cunard Seabourn

Last reported at 2019-Apr-26 03:58 UTC. Time now 2019-Apr-26 04:26 UTC.
Position N 42°58' E 010°14'.

Length 134 m; draft 5.6 m.

Type: Ship. MMSI: 311084000.

Date/timePositionNaut miles runAvg speedWind from/ knotsBaromVisibWave heightAir tempDewpointWater temp
2019-Apr-26 03:58N 42°58' E 010°14'510.4
2019-Apr-26 03:31N 43°02' E 010°10'611.0
2019-Apr-26 03:00N 43°06' E 010°05'712.9
2019-Apr-26 02:29N 43°11' E 009°59'613.3
2019-Apr-26 02:01N 43°16' E 009°53'713.1
2019-Apr-26 01:31N 43°21' E 009°47'713.1
2019-Apr-26 01:00N 43°27' E 009°44'713.2
2019-Apr-26 00:30N 43°33' E 009°40'612.7
2019-Apr-26 00:01N 43°39' E 009°37'612.5
2019-Apr-25 23:31N 43°45' E 009°34'612.6
2019-Apr-25 23:00N 43°50' E 009°30'612.7
2019-Apr-25 22:30N 43°56' E 009°27'612.7
2019-Apr-25 22:00N 44°02' E 009°24'612.6
2019-Apr-25 21:30N 44°08' E 009°20'612.7
2019-Apr-25 21:00N 44°14' E 009°17'5 9.4
2019-Apr-25 20:29N 44°18' E 009°14'0 0.3
2019-Apr-25 19:59N 44°18' E 009°14'0 0.1
2019-Apr-25 19:26N 44°18' E 009°14'0 0.1
2019-Apr-25 18:56N 44°18' E 009°14'0 0.0
2019-Apr-25 18:29N 44°18' E 009°14'0 0.0
2019-Apr-25 17:59N 44°18' E 009°14'0 0.0
2019-Apr-25 17:29N 44°18' E 009°14'0 0.0
2019-Apr-25 16:56N 44°18' E 009°14'0 0.0
2019-Apr-25 16:29N 44°18' E 009°14'0 0.0
2019-Apr-25 15:59N 44°18' E 009°14'0 0.3
2019-Apr-25 15:29N 44°18' E 009°14'0 0.0
2019-Apr-25 14:56N 44°18' E 009°14'0 0.0
2019-Apr-25 13:35N 44°18' E 009°14'0 0.2
2019-Apr-25 13:29N 44°18' E 009°14'0 0.1
2019-Apr-25 12:59N 44°18' E 009°14'0 0.0
2019-Apr-25 12:29N 44°18' E 009°14'0 0.0
2019-Apr-25 11:59N 44°18' E 009°14'0 0.0
2019-Apr-25 11:20N 44°18' E 009°14'0 0.1
2019-Apr-25 10:59N 44°18' E 009°14'0 0.0
2019-Apr-25 10:26N 44°18' E 009°14'0 0.0
2019-Apr-25 09:59N 44°18' E 009°14'0 0.0
2019-Apr-25 09:20N 44°18' E 009°14'0 0.0
2019-Apr-25 08:59N 44°18' E 009°14'0 0.0
2019-Apr-25 08:26N 44°18' E 009°14'0 0.0
2019-Apr-25 07:59N 44°18' E 009°14'0 0.0
2019-Apr-25 07:29N 44°18' E 009°14'0 0.0
2019-Apr-25 06:59N 44°18' E 009°14'0 0.0
2019-Apr-25 06:29N 44°18' E 009°14'0 0.0
2019-Apr-25 05:47N 44°18' E 009°14'0 0.0
2019-Apr-25 05:29N 44°18' E 009°14'0 0.0
2019-Apr-25 04:56N 44°18' E 009°14'1 1.8
2019-Apr-25 04:29N 44°18' E 009°15'4 7.3
2019-Apr-25 04:00N 44°15' E 009°18'3 6.4
2019-Apr-25 03:30N 44°13' E 009°14'3 6.1
2019-Apr-25 03:00N 44°12' E 009°10'3 7.0
2019-Apr-25 02:30N 44°11' E 009°06'4 7.5
2019-Apr-25 02:00N 44°09' E 009°01'4 7.9
2019-Apr-25 01:30N 44°08' E 008°56'4 7.9
2019-Apr-25 01:00N 44°06' E 008°51'4 8.0
2019-Apr-25 00:30N 44°04' E 008°46'4 7.9
2019-Apr-25 00:00N 44°02' E 008°41'4 8.5
2019-Apr-24 23:30N 44°00' E 008°36'5 8.7
2019-Apr-24 22:58N 43°58' E 008°30'4 8.6
2019-Apr-24 22:30N 43°56' E 008°25'10 8.1
2019-Apr-24 21:15N 43°52' E 008°13'5 8.0
2019-Apr-24 20:35N 43°49' E 008°06'1 8.0
2019-Apr-24 20:30N 43°49' E 008°05'7 8.4
2019-Apr-24 19:40N 43°46' E 007°56'1 8.9
2019-Apr-24 19:30N 43°46' E 007°55'4 8.0
2019-Apr-24 19:00N 43°44' E 007°49'4 8.5
2019-Apr-24 18:30N 43°43' E 007°44'4 8.7
2019-Apr-24 18:00N 43°41' E 007°38'4 8.6
2019-Apr-24 17:30N 43°40' E 007°33'4 8.9
2019-Apr-24 17:00N 43°39' E 007°27'510.5
2019-Apr-24 16:30N 43°40' E 007°20'3 5.2
2019-Apr-24 16:00N 43°42' E 007°17'0 0.0
2019-Apr-24 15:30N 43°42' E 007°17'0 0.0
2019-Apr-24 15:00N 43°42' E 007°17'0 0.0
2019-Apr-24 14:30N 43°42' E 007°17'0 0.0
2019-Apr-24 14:00N 43°42' E 007°17'0 0.0
2019-Apr-24 13:30N 43°42' E 007°17'0 0.0
2019-Apr-24 13:00N 43°42' E 007°17'0 0.0
2019-Apr-24 12:30N 43°42' E 007°17'0 0.0
2019-Apr-24 12:00N 43°42' E 007°17'0 0.0
2019-Apr-24 11:30N 43°42' E 007°17'0 0.0
2019-Apr-24 11:00N 43°42' E 007°17'0 0.0
2019-Apr-24 10:30N 43°42' E 007°17'0 0.0
2019-Apr-24 10:00N 43°42' E 007°17'0 0.0
2019-Apr-24 09:30N 43°42' E 007°17'0 0.0
2019-Apr-24 09:00N 43°42' E 007°17'0 0.0
2019-Apr-24 08:30N 43°42' E 007°17'0 0.0
2019-Apr-24 08:00N 43°42' E 007°17'0 0.0
2019-Apr-24 07:30N 43°42' E 007°17'0 0.0
2019-Apr-24 07:00N 43°42' E 007°17'0 0.0
2019-Apr-24 06:30N 43°42' E 007°17'0 0.0
2019-Apr-24 06:00N 43°42' E 007°17'0 0.0
2019-Apr-24 05:30N 43°42' E 007°17'0 0.0
2019-Apr-24 05:00N 43°42' E 007°17'0 0.0
2019-Apr-24 04:30N 43°42' E 007°17'0 0.0
2019-Apr-24 04:00N 43°42' E 007°17'0 0.0
2019-Apr-24 03:30N 43°42' E 007°17'0 0.0
2019-Apr-24 03:00N 43°42' E 007°17'0 0.0
2019-Apr-24 02:30N 43°42' E 007°17'0 0.0
2019-Apr-24 02:00N 43°42' E 007°17'0 0.0
2019-Apr-24 01:30N 43°42' E 007°17'0 0.0
2019-Apr-24 01:00N 43°42' E 007°17'0 0.0
2019-Apr-24 00:30N 43°42' E 007°17'0 0.0
2019-Apr-24 00:00N 43°42' E 007°17'0 0.0
2019-Apr-23 23:30N 43°42' E 007°17'0 0.0
2019-Apr-23 23:00N 43°42' E 007°17'0 0.0
2019-Apr-23 22:30N 43°42' E 007°17'0 0.0
2019-Apr-23 22:00N 43°42' E 007°17'0 0.0
2019-Apr-23 21:30N 43°42' E 007°17'0 0.0
2019-Apr-23 21:00N 43°42' E 007°17'0 0.0
2019-Apr-23 20:30N 43°42' E 007°17'0 0.0
2019-Apr-23 20:00N 43°42' E 007°17'0 0.0
2019-Apr-23 19:30N 43°42' E 007°17'0 0.0
2019-Apr-23 19:00N 43°42' E 007°17'0 0.0
2019-Apr-23 18:30N 43°42' E 007°17'0 0.0
2019-Apr-23 18:00N 43°42' E 007°17'0 0.0
2019-Apr-23 17:30N 43°42' E 007°17'0 0.0
2019-Apr-23 17:00N 43°42' E 007°17'0 0.0
2019-Apr-23 16:30N 43°42' E 007°17'0 0.0
2019-Apr-23 16:00N 43°42' E 007°17'0 0.0
2019-Apr-23 15:30N 43°42' E 007°17'0 0.0
2019-Apr-23 15:00N 43°42' E 007°17'0 0.0
2019-Apr-23 14:30N 43°42' E 007°17'0 0.0
2019-Apr-23 14:00N 43°42' E 007°17'0 0.0
2019-Apr-23 13:30N 43°42' E 007°17'0 0.0
2019-Apr-23 13:00N 43°42' E 007°17'0 0.0
2019-Apr-23 12:30N 43°42' E 007°17'0 0.0
2019-Apr-23 12:00N 43°42' E 007°17'0 0.0
2019-Apr-23 11:30N 43°42' E 007°17'0 0.0
2019-Apr-23 11:00N 43°42' E 007°17'0 0.0
2019-Apr-23 10:30N 43°42' E 007°17'0 0.0
2019-Apr-23 10:00N 43°42' E 007°17'0 0.0
2019-Apr-23 09:30N 43°42' E 007°17'0 0.0
2019-Apr-23 09:00N 43°42' E 007°17'0 0.0
2019-Apr-23 08:30N 43°42' E 007°17'0 0.0
2019-Apr-23 08:00N 43°42' E 007°17'0 0.0
2019-Apr-23 07:30N 43°42' E 007°17'0 0.0
2019-Apr-23 07:00N 43°42' E 007°17'0 0.0
2019-Apr-23 06:30N 43°42' E 007°17'0 0.0
2019-Apr-23 06:00N 43°42' E 007°17'0 0.0
2019-Apr-23 05:30N 43°42' E 007°17'1 2.7
2019-Apr-23 05:00N 43°40' E 007°17'4 7.7
2019-Apr-23 04:30N 43°37' E 007°16'4 8.6
2019-Apr-23 04:00N 43°32' E 007°14'4 8.7
2019-Apr-23 03:30N 43°28' E 007°11'5 9.4
2019-Apr-23 03:00N 43°25' E 007°06'612.5
2019-Apr-23 02:30N 43°22' E 006°60'612.7
2019-Apr-23 02:00N 43°17' E 006°54'612.4
2019-Apr-23 01:30N 43°12' E 006°48'611.9
2019-Apr-23 00:59N 43°08' E 006°42'611.3
2019-Apr-23 00:28N 43°03' E 006°37'65 8.1
2019-Apr-22 16:26N 43°16' E 005°09'910.5
2019-Apr-22 15:35N 43°21' E 005°20'0 0.0
2019-Apr-22 05:23N 43°21' E 005°20'4 9.6
2019-Apr-22 04:58N 43°19' E 005°15'4 8.7
2019-Apr-22 04:28N 43°16' E 005°11'4 7.8
2019-Apr-22 04:00N 43°12' E 005°11'156 4.8
2019-Apr-20 19:17N 41°22' E 002°41'2 6.9
2019-Apr-20 19:00N 41°21' E 002°38'3 6.9
2019-Apr-20 18:30N 41°19' E 002°34'3 6.5
2019-Apr-20 18:00N 41°18' E 002°31'4 6.0
2019-Apr-20 17:24N 41°17' E 002°26'3 6.6
2019-Apr-20 17:00N 41°18' E 002°23'3 6.7
2019-Apr-20 16:30N 41°19' E 002°18'3 6.2
2019-Apr-20 16:00N 41°20' E 002°14'3 5.9
2019-Apr-20 15:30N 41°21' E 002°11'1 2.0
2019-Apr-20 14:55N 41°22' E 002°11'0 0.0
2019-Apr-20 14:28N 41°22' E 002°11'0 0.0
2019-Apr-20 13:58N 41°22' E 002°11'0 0.0
2019-Apr-20 13:27N 41°22' E 002°11'0 0.0
2019-Apr-20 13:00N 41°22' E 002°11'0 0.0
2019-Apr-20 12:27N 41°22' E 002°11'0 0.0
2019-Apr-20 11:57N 41°22' E 002°11'0 0.0
2019-Apr-20 11:30N 41°22' E 002°11'0 0.0
2019-Apr-20 11:00N 41°22' E 002°11'0 0.0
2019-Apr-20 10:29N 41°22' E 002°11'0 0.0
2019-Apr-20 09:59N 41°22' E 002°11'0 0.0
2019-Apr-20 09:29N 41°22' E 002°11'0 0.0
2019-Apr-20 08:59N 41°22' E 002°11'0 0.0
2019-Apr-20 08:29N 41°22' E 002°11'0 0.0
2019-Apr-20 07:59N 41°22' E 002°11'0 0.0
2019-Apr-20 07:29N 41°22' E 002°11'0 0.0
2019-Apr-20 06:56N 41°22' E 002°11'0 0.0
2019-Apr-20 06:29N 41°22' E 002°11'0 0.0
2019-Apr-20 05:55N 41°22' E 002°11'0 0.0
2019-Apr-20 05:28N 41°22' E 002°11'0 0.0
2019-Apr-20 04:58N 41°22' E 002°11'0 0.0
2019-Apr-20 04:28N 41°22' E 002°11'0 0.0
2019-Apr-20 04:00N 41°22' E 002°11'0 0.0
2019-Apr-20 03:30N 41°22' E 002°11'0 0.0
2019-Apr-20 02:57N 41°22' E 002°11'0 0.0
2019-Apr-20 02:29N 41°22' E 002°11'0 0.0
2019-Apr-20 01:56N 41°22' E 002°11'0 0.0
2019-Apr-20 01:28N 41°22' E 002°11'0 0.0
2019-Apr-20 00:58N 41°22' E 002°11'0 0.0
2019-Apr-20 00:25N 41°22' E 002°11'0 0.0
2019-Apr-20 00:00N 41°22' E 002°11'0 0.0
2019-Apr-19 23:27N 41°22' E 002°11'0 0.0
2019-Apr-19 23:00N 41°22' E 002°11'0 0.0
2019-Apr-19 22:30N 41°22' E 002°11'0 0.0
2019-Apr-19 21:59N 41°22' E 002°11'0 0.0
2019-Apr-19 21:17N 41°22' E 002°11'0 0.0
2019-Apr-19 20:59N 41°22' E 002°11'0 0.0
2019-Apr-19 20:29N 41°22' E 002°11'0 0.0
2019-Apr-19 19:56N 41°22' E 002°11'0 0.0
2019-Apr-19 19:26N 41°22' E 002°11'0 0.0
2019-Apr-19 18:59N 41°22' E 002°11'0 0.0
2019-Apr-19 18:29N 41°22' E 002°11'0 0.0
2019-Apr-19 17:56N 41°22' E 002°11'0 0.0
2019-Apr-19 17:29N 41°22' E 002°11'0 0.0
2019-Apr-19 16:59N 41°22' E 002°11'0 0.0
2019-Apr-19 16:29N 41°22' E 002°11'0 0.0
2019-Apr-19 15:59N 41°22' E 002°11'0 0.0
2019-Apr-19 15:29N 41°22' E 002°11'0 0.0
2019-Apr-19 14:56N 41°22' E 002°11'0 0.0
2019-Apr-19 14:26N 41°22' E 002°11'0 0.0
2019-Apr-19 14:00N 41°22' E 002°11'0 0.0
2019-Apr-19 13:28N 41°22' E 002°11'0 0.0
2019-Apr-19 13:00N 41°22' E 002°11'0 0.0
2019-Apr-19 12:27N 41°22' E 002°11'0 0.0
2019-Apr-19 11:56N 41°22' E 002°11'0 0.0
2019-Apr-19 11:24N 41°22' E 002°11'0 0.0
2019-Apr-19 10:58N 41°22' E 002°11'0 0.0
2019-Apr-19 10:28N 41°22' E 002°11'0 0.0
2019-Apr-19 09:58N 41°22' E 002°11'0 0.0
2019-Apr-19 09:29N 41°22' E 002°11'0 0.0
2019-Apr-19 08:59N 41°22' E 002°11'0 0.0
2019-Apr-19 08:26N 41°22' E 002°11'0 0.0
2019-Apr-19 07:59N 41°22' E 002°11'0 0.0
2019-Apr-19 07:29N 41°22' E 002°11'0 0.7
2019-Apr-19 07:00N 41°22' E 002°11'5 9.4
2019-Apr-19 06:30N 41°18' E 002°14'611.8
2019-Apr-19 06:00N 41°12' E 002°11'612.1
2019-Apr-19 05:30N 41°07' E 002°07'611.8
2019-Apr-19 04:58N 41°01' E 002°04'  
Track history (hours):
 
Tides and Currents Weather Stations Pressure Air Temp Water Temp Dewpoint Dewpoint Depression Visibility Wind Speed Wind Dir Waves Ship Positions

Seabourn Pride

Operator: Cunard Seabourn

Last reported at 2019-Apr-26 03:58 UTC. Time now 2019-Apr-26 04:26 UTC.
Position N 42°58' E 010°14'.

Length 134 m; draft 5.6 m.

Type: Ship. MMSI: 311084000.

Date/timePositionNaut miles runAvg speedWind from/ knotsBaromVisibWave heightAir tempDewpointWater temp
2019-Apr-26 03:58N 42°58' E 010°14'510.4
2019-Apr-26 03:31N 43°02' E 010°10'611.0
2019-Apr-26 03:00N 43°06' E 010°05'712.9
2019-Apr-26 02:29N 43°11' E 009°59'613.3
2019-Apr-26 02:01N 43°16' E 009°53'713.1
2019-Apr-26 01:31N 43°21' E 009°47'713.1
2019-Apr-26 01:00N 43°27' E 009°44'713.2
2019-Apr-26 00:30N 43°33' E 009°40'612.7
2019-Apr-26 00:01N 43°39' E 009°37'612.5
2019-Apr-25 23:31N 43°45' E 009°34'612.6
2019-Apr-25 23:00N 43°50' E 009°30'612.7
2019-Apr-25 22:30N 43°56' E 009°27'612.7
2019-Apr-25 22:00N 44°02' E 009°24'612.6
2019-Apr-25 21:30N 44°08' E 009°20'612.7
2019-Apr-25 21:00N 44°14' E 009°17'5 9.4
2019-Apr-25 20:29N 44°18' E 009°14'0 0.3
2019-Apr-25 19:59N 44°18' E 009°14'0 0.1
2019-Apr-25 19:26N 44°18' E 009°14'0 0.1
2019-Apr-25 18:56N 44°18' E 009°14'0 0.0
2019-Apr-25 18:29N 44°18' E 009°14'0 0.0
2019-Apr-25 17:59N 44°18' E 009°14'0 0.0
2019-Apr-25 17:29N 44°18' E 009°14'0 0.0
2019-Apr-25 16:56N 44°18' E 009°14'0 0.0
2019-Apr-25 16:29N 44°18' E 009°14'0 0.0
2019-Apr-25 15:59N 44°18' E 009°14'0 0.3
2019-Apr-25 15:29N 44°18' E 009°14'0 0.0
2019-Apr-25 14:56N 44°18' E 009°14'0 0.0
2019-Apr-25 13:35N 44°18' E 009°14'0 0.2
2019-Apr-25 13:29N 44°18' E 009°14'0 0.1
2019-Apr-25 12:59N 44°18' E 009°14'0 0.0
2019-Apr-25 12:29N 44°18' E 009°14'0 0.0
2019-Apr-25 11:59N 44°18' E 009°14'0 0.0
2019-Apr-25 11:20N 44°18' E 009°14'0 0.1
2019-Apr-25 10:59N 44°18' E 009°14'0 0.0
2019-Apr-25 10:26N 44°18' E 009°14'0 0.0
2019-Apr-25 09:59N 44°18' E 009°14'0 0.0
2019-Apr-25 09:20N 44°18' E 009°14'0 0.0
2019-Apr-25 08:59N 44°18' E 009°14'0 0.0
2019-Apr-25 08:26N 44°18' E 009°14'0 0.0
2019-Apr-25 07:59N 44°18' E 009°14'0 0.0
2019-Apr-25 07:29N 44°18' E 009°14'0 0.0
2019-Apr-25 06:59N 44°18' E 009°14'0 0.0
2019-Apr-25 06:29N 44°18' E 009°14'0 0.0
2019-Apr-25 05:47N 44°18' E 009°14'0 0.0
2019-Apr-25 05:29N 44°18' E 009°14'0 0.0
2019-Apr-25 04:56N 44°18' E 009°14'1 1.8
2019-Apr-25 04:29N 44°18' E 009°15'4 7.3
2019-Apr-25 04:00N 44°15' E 009°18'3 6.4
2019-Apr-25 03:30N 44°13' E 009°14'3 6.1
2019-Apr-25 03:00N 44°12' E 009°10'3 7.0
2019-Apr-25 02:30N 44°11' E 009°06'4 7.5
2019-Apr-25 02:00N 44°09' E 009°01'4 7.9
2019-Apr-25 01:30N 44°08' E 008°56'4 7.9
2019-Apr-25 01:00N 44°06' E 008°51'4 8.0
2019-Apr-25 00:30N 44°04' E 008°46'4 7.9
2019-Apr-25 00:00N 44°02' E 008°41'4 8.5
2019-Apr-24 23:30N 44°00' E 008°36'5 8.7
2019-Apr-24 22:58N 43°58' E 008°30'4 8.6
2019-Apr-24 22:30N 43°56' E 008°25'10 8.1
2019-Apr-24 21:15N 43°52' E 008°13'5 8.0
2019-Apr-24 20:35N 43°49' E 008°06'1 8.0
2019-Apr-24 20:30N 43°49' E 008°05'7 8.4
2019-Apr-24 19:40N 43°46' E 007°56'1 8.9
2019-Apr-24 19:30N 43°46' E 007°55'4 8.0
2019-Apr-24 19:00N 43°44' E 007°49'4 8.5
2019-Apr-24 18:30N 43°43' E 007°44'4 8.7
2019-Apr-24 18:00N 43°41' E 007°38'4 8.6
2019-Apr-24 17:30N 43°40' E 007°33'4 8.9
2019-Apr-24 17:00N 43°39' E 007°27'510.5
2019-Apr-24 16:30N 43°40' E 007°20'3 5.2
2019-Apr-24 16:00N 43°42' E 007°17'0 0.0
2019-Apr-24 15:30N 43°42' E 007°17'0 0.0
2019-Apr-24 15:00N 43°42' E 007°17'0 0.0
2019-Apr-24 14:30N 43°42' E 007°17'0 0.0
2019-Apr-24 14:00N 43°42' E 007°17'0 0.0
2019-Apr-24 13:30N 43°42' E 007°17'0 0.0
2019-Apr-24 13:00N 43°42' E 007°17'0 0.0
2019-Apr-24 12:30N 43°42' E 007°17'0 0.0
2019-Apr-24 12:00N 43°42' E 007°17'0 0.0
2019-Apr-24 11:30N 43°42' E 007°17'0 0.0
2019-Apr-24 11:00N 43°42' E 007°17'0 0.0
2019-Apr-24 10:30N 43°42' E 007°17'0 0.0
2019-Apr-24 10:00N 43°42' E 007°17'0 0.0
2019-Apr-24 09:30N 43°42' E 007°17'0 0.0
2019-Apr-24 09:00N 43°42' E 007°17'0 0.0
2019-Apr-24 08:30N 43°42' E 007°17'0 0.0
2019-Apr-24 08:00N 43°42' E 007°17'0 0.0
2019-Apr-24 07:30N 43°42' E 007°17'0 0.0
2019-Apr-24 07:00N 43°42' E 007°17'0 0.0
2019-Apr-24 06:30N 43°42' E 007°17'0 0.0
2019-Apr-24 06:00N 43°42' E 007°17'0 0.0
2019-Apr-24 05:30N 43°42' E 007°17'0 0.0
2019-Apr-24 05:00N 43°42' E 007°17'0 0.0
2019-Apr-24 04:30N 43°42' E 007°17'0 0.0
2019-Apr-24 04:00N 43°42' E 007°17'0 0.0
2019-Apr-24 03:30N 43°42' E 007°17'0 0.0
2019-Apr-24 03:00N 43°42' E 007°17'0 0.0
2019-Apr-24 02:30N 43°42' E 007°17'0 0.0
2019-Apr-24 02:00N 43°42' E 007°17'0 0.0
2019-Apr-24 01:30N 43°42' E 007°17'0 0.0
2019-Apr-24 01:00N 43°42' E 007°17'0 0.0
2019-Apr-24 00:30N 43°42' E 007°17'0 0.0
2019-Apr-24 00:00N 43°42' E 007°17'0 0.0
2019-Apr-23 23:30N 43°42' E 007°17'0 0.0
2019-Apr-23 23:00N 43°42' E 007°17'0 0.0
2019-Apr-23 22:30N 43°42' E 007°17'0 0.0
2019-Apr-23 22:00N 43°42' E 007°17'0 0.0
2019-Apr-23 21:30N 43°42' E 007°17'0 0.0
2019-Apr-23 21:00N 43°42' E 007°17'0 0.0
2019-Apr-23 20:30N 43°42' E 007°17'0 0.0
2019-Apr-23 20:00N 43°42' E 007°17'0 0.0
2019-Apr-23 19:30N 43°42' E 007°17'0 0.0
2019-Apr-23 19:00N 43°42' E 007°17'0 0.0
2019-Apr-23 18:30N 43°42' E 007°17'0 0.0
2019-Apr-23 18:00N 43°42' E 007°17'0 0.0
2019-Apr-23 17:30N 43°42' E 007°17'0 0.0
2019-Apr-23 17:00N 43°42' E 007°17'0 0.0
2019-Apr-23 16:30N 43°42' E 007°17'0 0.0
2019-Apr-23 16:00N 43°42' E 007°17'0 0.0
2019-Apr-23 15:30N 43°42' E 007°17'0 0.0
2019-Apr-23 15:00N 43°42' E 007°17'0 0.0
2019-Apr-23 14:30N 43°42' E 007°17'0 0.0
2019-Apr-23 14:00N 43°42' E 007°17'0 0.0
2019-Apr-23 13:30N 43°42' E 007°17'0 0.0
2019-Apr-23 13:00N 43°42' E 007°17'0 0.0
2019-Apr-23 12:30N 43°42' E 007°17'0 0.0
2019-Apr-23 12:00N 43°42' E 007°17'0 0.0
2019-Apr-23 11:30N 43°42' E 007°17'0 0.0
2019-Apr-23 11:00N 43°42' E 007°17'0 0.0
2019-Apr-23 10:30N 43°42' E 007°17'0 0.0
2019-Apr-23 10:00N 43°42' E 007°17'0 0.0
2019-Apr-23 09:30N 43°42' E 007°17'0 0.0
2019-Apr-23 09:00N 43°42' E 007°17'0 0.0
2019-Apr-23 08:30N 43°42' E 007°17'0 0.0
2019-Apr-23 08:00N 43°42' E 007°17'0 0.0
2019-Apr-23 07:30N 43°42' E 007°17'0 0.0
2019-Apr-23 07:00N 43°42' E 007°17'0 0.0
2019-Apr-23 06:30N 43°42' E 007°17'0 0.0
2019-Apr-23 06:00N 43°42' E 007°17'0 0.0
2019-Apr-23 05:30N 43°42' E 007°17'1 2.7
2019-Apr-23 05:00N 43°40' E 007°17'4 7.7
2019-Apr-23 04:30N 43°37' E 007°16'4 8.6
2019-Apr-23 04:00N 43°32' E 007°14'4 8.7
2019-Apr-23 03:30N 43°28' E 007°11'5 9.4
2019-Apr-23 03:00N 43°25' E 007°06'612.5
2019-Apr-23 02:30N 43°22' E 006°60'612.7
2019-Apr-23 02:00N 43°17' E 006°54'612.4
2019-Apr-23 01:30N 43°12' E 006°48'611.9
2019-Apr-23 00:59N 43°08' E 006°42'611.3
2019-Apr-23 00:28N 43°03' E 006°37'65 8.1
2019-Apr-22 16:26N 43°16' E 005°09'910.5
2019-Apr-22 15:35N 43°21' E 005°20'0 0.0
2019-Apr-22 05:23N 43°21' E 005°20'4 9.6
2019-Apr-22 04:58N 43°19' E 005°15'4 8.7
2019-Apr-22 04:28N 43°16' E 005°11'4 7.8
2019-Apr-22 04:00N 43°12' E 005°11'156 4.8
2019-Apr-20 19:17N 41°22' E 002°41'2 6.9
2019-Apr-20 19:00N 41°21' E 002°38'3 6.9
2019-Apr-20 18:30N 41°19' E 002°34'3 6.5
2019-Apr-20 18:00N 41°18' E 002°31'4 6.0
2019-Apr-20 17:24N 41°17' E 002°26'3 6.6
2019-Apr-20 17:00N 41°18' E 002°23'3 6.7
2019-Apr-20 16:30N 41°19' E 002°18'3 6.2
2019-Apr-20 16:00N 41°20' E 002°14'3 5.9
2019-Apr-20 15:30N 41°21' E 002°11'1 2.0
2019-Apr-20 14:55N 41°22' E 002°11'0 0.0
2019-Apr-20 14:28N 41°22' E 002°11'0 0.0
2019-Apr-20 13:58N 41°22' E 002°11'0 0.0
2019-Apr-20 13:27N 41°22' E 002°11'0 0.0
2019-Apr-20 13:00N 41°22' E 002°11'0 0.0
2019-Apr-20 12:27N 41°22' E 002°11'0 0.0
2019-Apr-20 11:57N 41°22' E 002°11'0 0.0
2019-Apr-20 11:30N 41°22' E 002°11'0 0.0
2019-Apr-20 11:00N 41°22' E 002°11'0 0.0
2019-Apr-20 10:29N 41°22' E 002°11'0 0.0
2019-Apr-20 09:59N 41°22' E 002°11'0 0.0
2019-Apr-20 09:29N 41°22' E 002°11'0 0.0
2019-Apr-20 08:59N 41°22' E 002°11'0 0.0
2019-Apr-20 08:29N 41°22' E 002°11'0 0.0
2019-Apr-20 07:59N 41°22' E 002°11'0 0.0
2019-Apr-20 07:29N 41°22' E 002°11'0 0.0
2019-Apr-20 06:56N 41°22' E 002°11'0 0.0
2019-Apr-20 06:29N 41°22' E 002°11'0 0.0
2019-Apr-20 05:55N 41°22' E 002°11'0 0.0
2019-Apr-20 05:28N 41°22' E 002°11'0 0.0
2019-Apr-20 04:58N 41°22' E 002°11'0 0.0
2019-Apr-20 04:28N 41°22' E 002°11'0 0.0
2019-Apr-20 04:00N 41°22' E 002°11'0 0.0
2019-Apr-20 03:30N 41°22' E 002°11'0 0.0
2019-Apr-20 02:57N 41°22' E 002°11'0 0.0
2019-Apr-20 02:29N 41°22' E 002°11'0 0.0
2019-Apr-20 01:56N 41°22' E 002°11'0 0.0
2019-Apr-20 01:28N 41°22' E 002°11'0 0.0
2019-Apr-20 00:58N 41°22' E 002°11'0 0.0
2019-Apr-20 00:25N 41°22' E 002°11'0 0.0
2019-Apr-20 00:00N 41°22' E 002°11'0 0.0
2019-Apr-19 23:27N 41°22' E 002°11'0 0.0
2019-Apr-19 23:00N 41°22' E 002°11'0 0.0
2019-Apr-19 22:30N 41°22' E 002°11'0 0.0
2019-Apr-19 21:59N 41°22' E 002°11'0 0.0
2019-Apr-19 21:17N 41°22' E 002°11'0 0.0
2019-Apr-19 20:59N 41°22' E 002°11'0 0.0
2019-Apr-19 20:29N 41°22' E 002°11'0 0.0
2019-Apr-19 19:56N 41°22' E 002°11'0 0.0
2019-Apr-19 19:26N 41°22' E 002°11'0 0.0
2019-Apr-19 18:59N 41°22' E 002°11'0 0.0
2019-Apr-19 18:29N 41°22' E 002°11'0 0.0
2019-Apr-19 17:56N 41°22' E 002°11'0 0.0
2019-Apr-19 17:29N 41°22' E 002°11'0 0.0
2019-Apr-19 16:59N 41°22' E 002°11'0 0.0
2019-Apr-19 16:29N 41°22' E 002°11'0 0.0
2019-Apr-19 15:59N 41°22' E 002°11'0 0.0
2019-Apr-19 15:29N 41°22' E 002°11'0 0.0
2019-Apr-19 14:56N 41°22' E 002°11'0 0.0
2019-Apr-19 14:26N 41°22' E 002°11'0 0.0
2019-Apr-19 14:00N 41°22' E 002°11'0 0.0
2019-Apr-19 13:28N 41°22' E 002°11'0 0.0
2019-Apr-19 13:00N 41°22' E 002°11'0 0.0
2019-Apr-19 12:27N 41°22' E 002°11'0 0.0
2019-Apr-19 11:56N 41°22' E 002°11'0 0.0
2019-Apr-19 11:24N 41°22' E 002°11'0 0.0
2019-Apr-19 10:58N 41°22' E 002°11'0 0.0
2019-Apr-19 10:28N 41°22' E 002°11'0 0.0
2019-Apr-19 09:58N 41°22' E 002°11'0 0.0
2019-Apr-19 09:29N 41°22' E 002°11'0 0.0
2019-Apr-19 08:59N 41°22' E 002°11'0 0.0
2019-Apr-19 08:26N 41°22' E 002°11'0 0.0
2019-Apr-19 07:59N 41°22' E 002°11'0 0.0
2019-Apr-19 07:29N 41°22' E 002°11'0 0.7
2019-Apr-19 07:00N 41°22' E 002°11'5 9.4
2019-Apr-19 06:30N 41°18' E 002°14'611.8
2019-Apr-19 06:00N 41°12' E 002°11'612.1
2019-Apr-19 05:30N 41°07' E 002°07'611.8
2019-Apr-19 04:58N 41°01' E 002°04'  

Dump ship's entire track history